Ryoho Maru No.2 — JD2964 — position and weather

sailwx.info

Track history (hours):
 
Tides and Currents Weather Stations Pressure Air Temp Water Temp Dewpoint Dewpoint Depression Visibility Wind Speed Wind Dir Waves Ship Positions

Ryoho Maru No.2

Last reported at 2016-Feb-09 16:20 UTC. Time now 2016-Feb-14 14:35 UTC.
Position N 35°30' E 140°44'.

Length 57 m; draft 4 m.

Type: Tanker. MMSI: 431001062.

Date/timePositionNaut miles runAvg speedWind from/ knotsBaromVisibWave heightAir tempDewpointWater temp
2016-Feb-09 16:20N 35°30' E 140°44'8 9.9
2016-Feb-09 15:33N 35°24' E 140°39'10 9.3
2016-Feb-09 14:31N 35°16' E 140°31'2110.5
2016-Feb-09 12:30N 35°02' E 140°13'1511.4
2016-Feb-09 11:13N 34°53' E 139°58'810.6
2016-Feb-09 10:27N 34°53' E 139°48'9 8.7
2016-Feb-09 09:28N 35°01' E 139°44'7 7.6
2016-Feb-09 08:33N 35°08' E 139°46'8 8.5
2016-Feb-09 07:33N 35°16' E 139°46'9 8.8
2016-Feb-09 06:33N 35°25' E 139°44'7 6.9
2016-Feb-09 05:33N 35°32' E 139°45'0 0.1
2016-Feb-09 04:29N 35°32' E 139°45'0 0.0
2016-Feb-09 03:32N 35°32' E 139°45'0 0.0
2016-Feb-09 02:32N 35°32' E 139°45'0 0.0
2016-Feb-09 01:32N 35°32' E 139°45'0 0.0
2016-Feb-09 00:32N 35°32' E 139°45'1 1.3
2016-Feb-08 23:33N 35°31' E 139°46'3 2.5
2016-Feb-08 22:28N 35°30' E 139°50'0 0.0
2016-Feb-08 21:31N 35°30' E 139°50'0 0.0
2016-Feb-08 20:31N 35°30' E 139°50'0 0.0
2016-Feb-08 19:31N 35°30' E 139°50'0 0.0
2016-Feb-08 18:31N 35°30' E 139°50'0 0.0
2016-Feb-08 17:31N 35°30' E 139°50'0 0.0
2016-Feb-08 16:28N 35°30' E 139°50'0 0.1
2016-Feb-08 15:28N 35°30' E 139°50'0 0.1
2016-Feb-08 14:31N 35°30' E 139°50'0 0.0
2016-Feb-08 13:31N 35°30' E 139°50'0 0.0
2016-Feb-08 12:28N 35°30' E 139°50'0 0.0
2016-Feb-08 11:31N 35°30' E 139°50'0 0.0
2016-Feb-08 10:31N 35°30' E 139°50'0 0.0
2016-Feb-08 09:31N 35°30' E 139°50'0 0.0
2016-Feb-08 08:31N 35°30' E 139°50'0 0.0
2016-Feb-08 07:31N 35°30' E 139°50'0 0.0
2016-Feb-08 06:31N 35°30' E 139°50'0 0.0
2016-Feb-08 05:31N 35°30' E 139°50'0 0.0
2016-Feb-08 04:31N 35°30' E 139°50'1 1.4
2016-Feb-08 03:34N 35°30' E 139°48'3 2.5
2016-Feb-08 02:32N 35°32' E 139°45'0 0.0
2016-Feb-08 01:32N 35°32' E 139°45'0 0.0
2016-Feb-08 00:32N 35°32' E 139°45'1 1.2
2016-Feb-07 23:33N 35°31' E 139°46'3 2.9
2016-Feb-07 22:32N 35°30' E 139°50'0 0.0
2016-Feb-07 21:32N 35°30' E 139°50'0 0.0
2016-Feb-07 20:32N 35°30' E 139°50'0 0.0
2016-Feb-07 19:32N 35°30' E 139°50'0 0.0
2016-Feb-07 18:32N 35°30' E 139°50'0 0.0
2016-Feb-07 17:32N 35°30' E 139°50'0 0.0
2016-Feb-07 16:32N 35°30' E 139°50'0 0.0
2016-Feb-07 15:32N 35°30' E 139°50'0 0.0
2016-Feb-07 14:32N 35°30' E 139°50'0 0.0
2016-Feb-07 13:32N 35°30' E 139°50'0 0.0
2016-Feb-07 12:32N 35°30' E 139°50'0 0.0
2016-Feb-07 11:32N 35°30' E 139°50'0 0.0
2016-Feb-07 10:32N 35°30' E 139°50'0 0.0
2016-Feb-07 09:32N 35°30' E 139°50'0 0.0
2016-Feb-07 08:32N 35°30' E 139°50'0 0.0
2016-Feb-07 07:32N 35°30' E 139°50'0 0.0
2016-Feb-07 06:32N 35°30' E 139°50'0 0.0
2016-Feb-07 05:26N 35°30' E 139°50'0 0.0
2016-Feb-07 04:32N 35°30' E 139°50'0 0.0
2016-Feb-07 03:32N 35°30' E 139°50'0 0.0
2016-Feb-07 02:32N 35°30' E 139°50'0 0.0
2016-Feb-07 01:32N 35°30' E 139°50'0 0.0
2016-Feb-07 00:32N 35°30' E 139°50'0 0.0
2016-Feb-06 23:32N 35°30' E 139°50'0 0.0
2016-Feb-06 22:32N 35°30' E 139°50'0 0.0
2016-Feb-06 21:32N 35°30' E 139°50'0 0.0
2016-Feb-06 20:32N 35°30' E 139°50'0 0.0
2016-Feb-06 19:32N 35°30' E 139°50'0 0.0
2016-Feb-06 18:32N 35°30' E 139°50'0 0.0
2016-Feb-06 17:32N 35°30' E 139°50'0 0.0
2016-Feb-06 16:32N 35°30' E 139°50'0 0.0
2016-Feb-06 15:32N 35°30' E 139°50'0 0.1
2016-Feb-06 14:32N 35°30' E 139°50'0 0.0
2016-Feb-06 13:32N 35°30' E 139°50'0 0.0
2016-Feb-06 12:32N 35°30' E 139°50'0 0.0
2016-Feb-06 11:32N 35°30' E 139°50'0 0.0
2016-Feb-06 10:32N 35°30' E 139°50'0 0.0
2016-Feb-06 09:32N 35°30' E 139°50'0 0.0
2016-Feb-06 08:32N 35°30' E 139°50'0 0.0
2016-Feb-06 07:32N 35°30' E 139°50'0 0.0
2016-Feb-06 06:32N 35°30' E 139°50'0 0.0
2016-Feb-06 05:32N 35°30' E 139°50'0 0.0
2016-Feb-06 04:32N 35°30' E 139°50'0 0.0
2016-Feb-06 03:32N 35°30' E 139°50'0 0.0
2016-Feb-06 02:32N 35°30' E 139°50'0 0.0
2016-Feb-06 01:32N 35°30' E 139°50'0 0.0
2016-Feb-06 00:32N 35°30' E 139°50'0 0.0
2016-Feb-05 23:32N 35°30' E 139°50'0 0.0
2016-Feb-05 22:32N 35°30' E 139°50'0 0.0
2016-Feb-05 21:32N 35°30' E 139°50'0 0.0
2016-Feb-05 20:32N 35°30' E 139°50'0 0.0
2016-Feb-05 19:32N 35°30' E 139°50'0 0.0
2016-Feb-05 18:32N 35°30' E 139°50'0 0.0
2016-Feb-05 17:23N 35°30' E 139°50'0 0.0
2016-Feb-05 16:32N 35°30' E 139°50'0 0.0
2016-Feb-05 15:32N 35°30' E 139°50'0 0.0
2016-Feb-05 14:32N 35°30' E 139°50'0 0.0
2016-Feb-05 13:32N 35°30' E 139°50'0 0.0
2016-Feb-05 12:32N 35°30' E 139°50'0 0.0
2016-Feb-05 11:32N 35°30' E 139°50'0 0.0
2016-Feb-05 10:32N 35°30' E 139°50'0 0.0
2016-Feb-05 09:32N 35°30' E 139°50'0 0.0
2016-Feb-05 08:32N 35°30' E 139°50'0 0.0
2016-Feb-05 07:32N 35°30' E 139°50'0 0.0
2016-Feb-05 06:32N 35°30' E 139°50'0 0.0
2016-Feb-05 05:32N 35°30' E 139°50'0 0.0
2016-Feb-05 04:32N 35°30' E 139°50'6 6.7
2016-Feb-05 03:33N 35°30' E 139°58'3 3.0
2016-Feb-05 02:32N 35°28' E 140°01'0 0.0
2016-Feb-05 01:32N 35°28' E 140°01'0 0.0
2016-Feb-05 00:32N 35°28' E 140°01'0 0.0
2016-Feb-04 23:32N 35°28' E 140°01'1 1.3
2016-Feb-04 22:31N 35°29' E 139°60'0 0.0
2016-Feb-04 21:31N 35°29' E 139°60'0 0.0
2016-Feb-04 20:31N 35°29' E 139°60'0 0.0
2016-Feb-04 19:31N 35°29' E 139°60'0 0.0
2016-Feb-04 18:31N 35°29' E 139°60'0 0.0
2016-Feb-04 17:31N 35°29' E 139°60'0 0.0
2016-Feb-04 16:13N 35°29' E 139°60'0 0.0
2016-Feb-04 15:31N 35°29' E 139°60'0 0.0
2016-Feb-04 14:31N 35°29' E 139°60'0 0.0
2016-Feb-04 13:28N 35°29' E 139°60'0 0.1
2016-Feb-04 12:31N 35°29' E 139°60'0 0.0
2016-Feb-04 11:31N 35°29' E 139°60'0 0.0
2016-Feb-04 10:31N 35°29' E 139°60'0 0.0
2016-Feb-04 09:31N 35°29' E 139°60'0 0.0
2016-Feb-04 08:25N 35°29' E 139°60'0 0.0
2016-Feb-04 07:13N 35°29' E 139°60'0 0.0
2016-Feb-04 06:31N 35°29' E 139°60'0 0.0
2016-Feb-04 05:25N 35°29' E 139°60'0 0.0
2016-Feb-04 04:31N 35°29' E 139°60'0 0.0
2016-Feb-04 03:31N 35°29' E 139°60'0 0.0
2016-Feb-04 02:31N 35°29' E 139°60'0 0.0
2016-Feb-04 01:31N 35°29' E 139°60'0 0.0
2016-Feb-04 00:31N 35°29' E 139°60'0 0.0
2016-Feb-03 23:31N 35°29' E 139°60'0 0.0
2016-Feb-03 22:31N 35°29' E 139°60'0 0.0
2016-Feb-03 21:31N 35°29' E 139°60'0 0.0
2016-Feb-03 20:31N 35°29' E 139°60'0 0.0
2016-Feb-03 19:31N 35°29' E 139°60'0 0.0
2016-Feb-03 18:31N 35°29' E 139°60'0 0.0
2016-Feb-03 17:25N 35°29' E 139°60'0 0.0
2016-Feb-03 16:31N 35°29' E 139°60'0 0.0
2016-Feb-03 15:31N 35°29' E 139°60'0 0.0
2016-Feb-03 14:31N 35°29' E 139°60'0 0.0
2016-Feb-03 13:25N 35°29' E 139°60'0 0.0
2016-Feb-03 12:31N 35°29' E 139°60'0 0.0
2016-Feb-03 11:13N 35°29' E 139°60'0 0.0
2016-Feb-03 10:31N 35°29' E 139°60'0 0.0
2016-Feb-03 09:31N 35°29' E 139°60'0 0.0
2016-Feb-03 08:25N 35°29' E 139°60'0 0.0
2016-Feb-03 07:25N 35°29' E 139°60'0 0.0
2016-Feb-03 06:31N 35°29' E 139°60'0 0.0
2016-Feb-03 03:25N 35°29' E 139°60'0 0.0
2016-Feb-03 02:25N 35°29' E 139°60'0 0.0
2016-Feb-03 01:25N 35°29' E 139°60'0 0.0
2016-Feb-03 00:31N 35°29' E 139°60'0 0.0
2016-Feb-02 23:31N 35°29' E 139°60'0 0.0
2016-Feb-02 22:31N 35°29' E 139°60'0 0.0
2016-Feb-02 21:25N 35°29' E 139°60'6 6.9
2016-Feb-02 20:34N 35°29' E 139°53'9 8.9
2016-Feb-02 19:33N 35°22' E 139°45'8 8.2
2016-Feb-02 18:33N 35°14' E 139°47'9 9.4
2016-Feb-02 17:33N 35°04' E 139°46'9 8.9
2016-Feb-02 16:33N 34°55' E 139°46'9 9.0
2016-Feb-02 15:30N 34°53' E 139°57'1010.1
2016-Feb-02 14:33N 34°58' E 140°06'1010.2
2016-Feb-02 13:32N 35°04' E 140°16'10 9.9
2016-Feb-02 12:33N 35°10' E 140°25'2110.2
2016-Feb-02 10:32N 35°27' E 140°41'  
Track history (hours):
 
Tides and Currents Weather Stations Pressure Air Temp Water Temp Dewpoint Dewpoint Depression Visibility Wind Speed Wind Dir Waves Ship Positions

Ryoho Maru No.2

Last reported at 2016-Feb-09 16:20 UTC. Time now 2016-Feb-14 14:35 UTC.
Position N 35°30' E 140°44'.

Length 57 m; draft 4 m.

Type: Tanker. MMSI: 431001062.

Date/timePositionNaut miles runAvg speedWind from/ knotsBaromVisibWave heightAir tempDewpointWater temp
2016-Feb-09 16:20N 35°30' E 140°44'8 9.9
2016-Feb-09 15:33N 35°24' E 140°39'10 9.3
2016-Feb-09 14:31N 35°16' E 140°31'2110.5
2016-Feb-09 12:30N 35°02' E 140°13'1511.4
2016-Feb-09 11:13N 34°53' E 139°58'810.6
2016-Feb-09 10:27N 34°53' E 139°48'9 8.7
2016-Feb-09 09:28N 35°01' E 139°44'7 7.6
2016-Feb-09 08:33N 35°08' E 139°46'8 8.5
2016-Feb-09 07:33N 35°16' E 139°46'9 8.8
2016-Feb-09 06:33N 35°25' E 139°44'7 6.9
2016-Feb-09 05:33N 35°32' E 139°45'0 0.1
2016-Feb-09 04:29N 35°32' E 139°45'0 0.0
2016-Feb-09 03:32N 35°32' E 139°45'0 0.0
2016-Feb-09 02:32N 35°32' E 139°45'0 0.0
2016-Feb-09 01:32N 35°32' E 139°45'0 0.0
2016-Feb-09 00:32N 35°32' E 139°45'1 1.3
2016-Feb-08 23:33N 35°31' E 139°46'3 2.5
2016-Feb-08 22:28N 35°30' E 139°50'0 0.0
2016-Feb-08 21:31N 35°30' E 139°50'0 0.0
2016-Feb-08 20:31N 35°30' E 139°50'0 0.0
2016-Feb-08 19:31N 35°30' E 139°50'0 0.0
2016-Feb-08 18:31N 35°30' E 139°50'0 0.0
2016-Feb-08 17:31N 35°30' E 139°50'0 0.0
2016-Feb-08 16:28N 35°30' E 139°50'0 0.1
2016-Feb-08 15:28N 35°30' E 139°50'0 0.1
2016-Feb-08 14:31N 35°30' E 139°50'0 0.0
2016-Feb-08 13:31N 35°30' E 139°50'0 0.0
2016-Feb-08 12:28N 35°30' E 139°50'0 0.0
2016-Feb-08 11:31N 35°30' E 139°50'0 0.0
2016-Feb-08 10:31N 35°30' E 139°50'0 0.0
2016-Feb-08 09:31N 35°30' E 139°50'0 0.0
2016-Feb-08 08:31N 35°30' E 139°50'0 0.0
2016-Feb-08 07:31N 35°30' E 139°50'0 0.0
2016-Feb-08 06:31N 35°30' E 139°50'0 0.0
2016-Feb-08 05:31N 35°30' E 139°50'0 0.0
2016-Feb-08 04:31N 35°30' E 139°50'1 1.4
2016-Feb-08 03:34N 35°30' E 139°48'3 2.5
2016-Feb-08 02:32N 35°32' E 139°45'0 0.0
2016-Feb-08 01:32N 35°32' E 139°45'0 0.0
2016-Feb-08 00:32N 35°32' E 139°45'1 1.2
2016-Feb-07 23:33N 35°31' E 139°46'3 2.9
2016-Feb-07 22:32N 35°30' E 139°50'0 0.0
2016-Feb-07 21:32N 35°30' E 139°50'0 0.0
2016-Feb-07 20:32N 35°30' E 139°50'0 0.0
2016-Feb-07 19:32N 35°30' E 139°50'0 0.0
2016-Feb-07 18:32N 35°30' E 139°50'0 0.0
2016-Feb-07 17:32N 35°30' E 139°50'0 0.0
2016-Feb-07 16:32N 35°30' E 139°50'0 0.0
2016-Feb-07 15:32N 35°30' E 139°50'0 0.0
2016-Feb-07 14:32N 35°30' E 139°50'0 0.0
2016-Feb-07 13:32N 35°30' E 139°50'0 0.0
2016-Feb-07 12:32N 35°30' E 139°50'0 0.0
2016-Feb-07 11:32N 35°30' E 139°50'0 0.0
2016-Feb-07 10:32N 35°30' E 139°50'0 0.0
2016-Feb-07 09:32N 35°30' E 139°50'0 0.0
2016-Feb-07 08:32N 35°30' E 139°50'0 0.0
2016-Feb-07 07:32N 35°30' E 139°50'0 0.0
2016-Feb-07 06:32N 35°30' E 139°50'0 0.0
2016-Feb-07 05:26N 35°30' E 139°50'0 0.0
2016-Feb-07 04:32N 35°30' E 139°50'0 0.0
2016-Feb-07 03:32N 35°30' E 139°50'0 0.0
2016-Feb-07 02:32N 35°30' E 139°50'0 0.0
2016-Feb-07 01:32N 35°30' E 139°50'0 0.0
2016-Feb-07 00:32N 35°30' E 139°50'0 0.0
2016-Feb-06 23:32N 35°30' E 139°50'0 0.0
2016-Feb-06 22:32N 35°30' E 139°50'0 0.0
2016-Feb-06 21:32N 35°30' E 139°50'0 0.0
2016-Feb-06 20:32N 35°30' E 139°50'0 0.0
2016-Feb-06 19:32N 35°30' E 139°50'0 0.0
2016-Feb-06 18:32N 35°30' E 139°50'0 0.0
2016-Feb-06 17:32N 35°30' E 139°50'0 0.0
2016-Feb-06 16:32N 35°30' E 139°50'0 0.0
2016-Feb-06 15:32N 35°30' E 139°50'0 0.1
2016-Feb-06 14:32N 35°30' E 139°50'0 0.0
2016-Feb-06 13:32N 35°30' E 139°50'0 0.0
2016-Feb-06 12:32N 35°30' E 139°50'0 0.0
2016-Feb-06 11:32N 35°30' E 139°50'0 0.0
2016-Feb-06 10:32N 35°30' E 139°50'0 0.0
2016-Feb-06 09:32N 35°30' E 139°50'0 0.0
2016-Feb-06 08:32N 35°30' E 139°50'0 0.0
2016-Feb-06 07:32N 35°30' E 139°50'0 0.0
2016-Feb-06 06:32N 35°30' E 139°50'0 0.0
2016-Feb-06 05:32N 35°30' E 139°50'0 0.0
2016-Feb-06 04:32N 35°30' E 139°50'0 0.0
2016-Feb-06 03:32N 35°30' E 139°50'0 0.0
2016-Feb-06 02:32N 35°30' E 139°50'0 0.0
2016-Feb-06 01:32N 35°30' E 139°50'0 0.0
2016-Feb-06 00:32N 35°30' E 139°50'0 0.0
2016-Feb-05 23:32N 35°30' E 139°50'0 0.0
2016-Feb-05 22:32N 35°30' E 139°50'0 0.0
2016-Feb-05 21:32N 35°30' E 139°50'0 0.0
2016-Feb-05 20:32N 35°30' E 139°50'0 0.0
2016-Feb-05 19:32N 35°30' E 139°50'0 0.0
2016-Feb-05 18:32N 35°30' E 139°50'0 0.0
2016-Feb-05 17:23N 35°30' E 139°50'0 0.0
2016-Feb-05 16:32N 35°30' E 139°50'0 0.0
2016-Feb-05 15:32N 35°30' E 139°50'0 0.0
2016-Feb-05 14:32N 35°30' E 139°50'0 0.0
2016-Feb-05 13:32N 35°30' E 139°50'0 0.0
2016-Feb-05 12:32N 35°30' E 139°50'0 0.0
2016-Feb-05 11:32N 35°30' E 139°50'0 0.0
2016-Feb-05 10:32N 35°30' E 139°50'0 0.0
2016-Feb-05 09:32N 35°30' E 139°50'0 0.0
2016-Feb-05 08:32N 35°30' E 139°50'0 0.0
2016-Feb-05 07:32N 35°30' E 139°50'0 0.0
2016-Feb-05 06:32N 35°30' E 139°50'0 0.0
2016-Feb-05 05:32N 35°30' E 139°50'0 0.0
2016-Feb-05 04:32N 35°30' E 139°50'6 6.7
2016-Feb-05 03:33N 35°30' E 139°58'3 3.0
2016-Feb-05 02:32N 35°28' E 140°01'0 0.0
2016-Feb-05 01:32N 35°28' E 140°01'0 0.0
2016-Feb-05 00:32N 35°28' E 140°01'0 0.0
2016-Feb-04 23:32N 35°28' E 140°01'1 1.3
2016-Feb-04 22:31N 35°29' E 139°60'0 0.0
2016-Feb-04 21:31N 35°29' E 139°60'0 0.0
2016-Feb-04 20:31N 35°29' E 139°60'0 0.0
2016-Feb-04 19:31N 35°29' E 139°60'0 0.0
2016-Feb-04 18:31N 35°29' E 139°60'0 0.0
2016-Feb-04 17:31N 35°29' E 139°60'0 0.0
2016-Feb-04 16:13N 35°29' E 139°60'0 0.0
2016-Feb-04 15:31N 35°29' E 139°60'0 0.0
2016-Feb-04 14:31N 35°29' E 139°60'0 0.0
2016-Feb-04 13:28N 35°29' E 139°60'0 0.1
2016-Feb-04 12:31N 35°29' E 139°60'0 0.0
2016-Feb-04 11:31N 35°29' E 139°60'0 0.0
2016-Feb-04 10:31N 35°29' E 139°60'0 0.0
2016-Feb-04 09:31N 35°29' E 139°60'0 0.0
2016-Feb-04 08:25N 35°29' E 139°60'0 0.0
2016-Feb-04 07:13N 35°29' E 139°60'0 0.0
2016-Feb-04 06:31N 35°29' E 139°60'0 0.0
2016-Feb-04 05:25N 35°29' E 139°60'0 0.0
2016-Feb-04 04:31N 35°29' E 139°60'0 0.0
2016-Feb-04 03:31N 35°29' E 139°60'0 0.0
2016-Feb-04 02:31N 35°29' E 139°60'0 0.0
2016-Feb-04 01:31N 35°29' E 139°60'0 0.0
2016-Feb-04 00:31N 35°29' E 139°60'0 0.0
2016-Feb-03 23:31N 35°29' E 139°60'0 0.0
2016-Feb-03 22:31N 35°29' E 139°60'0 0.0
2016-Feb-03 21:31N 35°29' E 139°60'0 0.0
2016-Feb-03 20:31N 35°29' E 139°60'0 0.0
2016-Feb-03 19:31N 35°29' E 139°60'0 0.0
2016-Feb-03 18:31N 35°29' E 139°60'0 0.0
2016-Feb-03 17:25N 35°29' E 139°60'0 0.0
2016-Feb-03 16:31N 35°29' E 139°60'0 0.0
2016-Feb-03 15:31N 35°29' E 139°60'0 0.0
2016-Feb-03 14:31N 35°29' E 139°60'0 0.0
2016-Feb-03 13:25N 35°29' E 139°60'0 0.0
2016-Feb-03 12:31N 35°29' E 139°60'0 0.0
2016-Feb-03 11:13N 35°29' E 139°60'0 0.0
2016-Feb-03 10:31N 35°29' E 139°60'0 0.0
2016-Feb-03 09:31N 35°29' E 139°60'0 0.0
2016-Feb-03 08:25N 35°29' E 139°60'0 0.0
2016-Feb-03 07:25N 35°29' E 139°60'0 0.0
2016-Feb-03 06:31N 35°29' E 139°60'0 0.0
2016-Feb-03 03:25N 35°29' E 139°60'0 0.0
2016-Feb-03 02:25N 35°29' E 139°60'0 0.0
2016-Feb-03 01:25N 35°29' E 139°60'0 0.0
2016-Feb-03 00:31N 35°29' E 139°60'0 0.0
2016-Feb-02 23:31N 35°29' E 139°60'0 0.0
2016-Feb-02 22:31N 35°29' E 139°60'0 0.0
2016-Feb-02 21:25N 35°29' E 139°60'6 6.9
2016-Feb-02 20:34N 35°29' E 139°53'9 8.9
2016-Feb-02 19:33N 35°22' E 139°45'8 8.2
2016-Feb-02 18:33N 35°14' E 139°47'9 9.4
2016-Feb-02 17:33N 35°04' E 139°46'9 8.9
2016-Feb-02 16:33N 34°55' E 139°46'9 9.0
2016-Feb-02 15:30N 34°53' E 139°57'1010.1
2016-Feb-02 14:33N 34°58' E 140°06'1010.2
2016-Feb-02 13:32N 35°04' E 140°16'10 9.9
2016-Feb-02 12:33N 35°10' E 140°25'2110.2
2016-Feb-02 10:32N 35°27' E 140°41'  

Dump ship's entire track history